Time;durP1;ratioP1;P1;durP2;ratioP2;P2;SDS_P1;SDS_P2;PMS_P1;PMS_P2;Temp;Humidity;BMP_temperature;BMP_pressure;BME280_temperature;BME280_humidity;BME280_pressure;Samples;Min_cycle;Max_cycle;Signal;HPM_P1;HPM_P2
2022/03/08 00:00:32;;;;;;;3.00;2.42;;;;;;;4.06;65.40;99105.10;1758050;80;20969;-61
2022/03/08 00:02:59;;;;;;;2.80;2.12;;;;;;;4.06;65.44;99104.27;1744130;81;21257;-63
2022/03/08 00:05:27;;;;;;;3.15;2.05;;;;;;;4.07;65.45;99104.59;1759687;80;20903;-61
2022/03/08 00:07:54;;;;;;;2.62;1.92;;;;;;;4.07;65.47;99105.91;1761644;80;20879;-62
2022/03/08 00:10:21;;;;;;;3.50;2.30;;;;;;;4.07;65.55;99102.80;1773039;80;21020;-62
2022/03/08 00:12:50;;;;;;;2.47;2.12;;;;;;;4.08;65.57;99098.37;1773576;80;20943;-63
2022/03/08 00:15:21;;;;;;;5.10;2.42;;;;;;;4.09;65.58;99101.36;1748329;80;21889;-62
2022/03/08 00:17:49;;;;;;;2.50;2.02;;;;;;;4.10;65.62;99102.52;1758486;80;20978;-62
2022/03/08 00:20:16;;;;;;;3.12;2.60;;;;;;;4.12;65.64;99101.09;1773280;80;20935;-62
2022/03/08 00:22:43;;;;;;;3.87;2.10;;;;;;;4.14;65.61;99103.09;1773618;80;20999;-61
2022/03/08 00:25:11;;;;;;;2.60;2.30;;;;;;;4.16;65.56;99096.72;1752213;80;21031;-62
2022/03/08 00:27:42;;;;;;;3.90;2.15;;;;;;;4.18;65.59;99096.08;1773018;80;21303;-62
2022/03/08 00:30:09;;;;;;;3.60;2.27;;;;;;;4.19;65.53;99096.44;1747889;80;21538;-61
2022/03/08 00:32:37;;;;;;;2.95;2.40;;;;;;;4.19;65.49;99096.92;1728116;82;21487;-62
2022/03/08 00:35:06;;;;;;;3.05;2.02;;;;;;;4.20;65.49;99103.83;1724991;81;20893;-62
2022/03/08 00:37:34;;;;;;;3.05;2.10;;;;;;;4.19;65.49;99106.97;1731816;81;21034;-60
2022/03/08 00:40:05;;;;;;;4.97;2.00;;;;;;;4.19;65.49;99099.08;1732497;81;21864;-62
2022/03/08 00:42:33;;;;;;;2.20;2.00;;;;;;;4.20;65.47;99099.88;1735901;81;21068;-62
2022/03/08 00:45:00;;;;;;;2.72;2.10;;;;;;;4.21;65.47;99102.88;1673423;85;21001;-62
2022/03/08 00:47:27;;;;;;;2.70;2.40;;;;;;;4.21;65.44;99097.12;1753656;81;20984;-61
2022/03/08 00:49:56;;;;;;;2.77;2.25;;;;;;;4.22;65.47;99102.72;1755809;81;21039;-61
2022/03/08 00:52:23;;;;;;;2.70;2.00;;;;;;;4.24;65.40;99102.59;1742416;81;21154;-61
2022/03/08 00:54:50;;;;;;;3.25;2.10;;;;;;;4.20;65.47;99101.20;1726244;81;20987;-62
2022/03/08 00:57:17;;;;;;;3.50;2.70;;;;;;;4.20;65.48;99099.88;1735573;81;20884;-60
2022/03/08 00:59:44;;;;;;;3.37;2.25;;;;;;;4.17;65.53;99100.19;1761300;81;20935;-61
2022/03/08 01:02:11;;;;;;;4.22;2.77;;;;;;;4.17;65.52;99094.92;1728965;81;21004;-61
2022/03/08 01:04:38;;;;;;;2.72;2.27;;;;;;;4.18;65.59;99093.45;1731734;81;21223;-59
2022/03/08 01:07:07;;;;;;;2.35;1.65;;;;;;;4.16;65.55;99091.45;1739401;81;21048;-62
2022/03/08 01:09:34;;;;;;;3.87;2.77;;;;;;;4.13;65.59;99098.30;1717487;81;21478;-62
2022/03/08 01:12:01;;;;;;;2.77;2.17;;;;;;;4.13;65.66;99097.47;1730495;81;20984;-61
2022/03/08 01:14:28;;;;;;;3.75;2.10;;;;;;;4.14;65.66;99090.77;1743055;81;21584;-61
2022/03/08 01:16:56;;;;;;;3.02;2.60;;;;;;;4.15;65.57;99089.77;1682791;85;21266;-61
2022/03/08 01:19:25;;;;;;;4.55;2.55;;;;;;;4.14;65.53;99086.81;1690541;84;20953;-60
2022/03/08 01:21:52;;;;;;;2.77;2.05;;;;;;;4.12;65.54;99085.30;1676627;84;20965;-61
2022/03/08 01:24:21;;;;;;;3.62;2.52;;;;;;;4.13;65.54;99085.62;1678194;83;20916;-62
2022/03/08 01:26:48;;;;;;;2.20;2.00;;;;;;;4.11;65.57;99089.72;1674843;84;21048;-61
2022/03/08 01:29:15;;;;;;;2.87;2.20;;;;;;;4.12;65.58;99083.97;1666352;84;21253;-61
2022/03/08 01:31:42;;;;;;;2.85;2.08;;;;;;;4.11;65.49;99091.03;1664877;85;21509;-62
2022/03/08 01:34:09;;;;;;;2.62;1.90;;;;;;;4.08;65.53;99089.16;1670519;85;21497;-62
2022/03/08 01:36:37;;;;;;;2.50;2.05;;;;;;;4.06;65.58;99092.42;1675340;85;20999;-62
2022/03/08 01:39:06;;;;;;;2.47;1.98;;;;;;;4.04;65.65;99086.47;1676244;85;20932;-61
2022/03/08 01:41:33;;;;;;;2.50;1.92;;;;;;;4.02;65.66;99091.02;1674451;85;21306;-61
2022/03/08 01:44:00;;;;;;;2.75;2.00;;;;;;;4.01;65.67;99092.84;1663793;85;20963;-63
2022/03/08 01:46:29;;;;;;;2.08;1.55;;;;;;;4.00;65.77;99091.64;1662111;85;20983;-62
2022/03/08 01:48:56;;;;;;;2.37;1.62;;;;;;;4.00;65.81;99087.70;1655732;85;20928;-60
2022/03/08 01:51:24;;;;;;;1.85;1.60;;;;;;;3.97;65.81;99084.02;1651546;85;20884;-61
2022/03/08 01:53:51;;;;;;;2.10;1.90;;;;;;;3.98;65.82;99085.22;1658260;85;21170;-60
2022/03/08 01:56:18;;;;;;;2.80;2.00;;;;;;;3.97;65.89;99086.66;1648475;85;21043;-61
2022/03/08 01:58:45;;;;;;;2.47;1.80;;;;;;;3.96;65.99;99081.06;1646323;85;20964;-61
2022/03/08 02:01:13;;;;;;;2.55;2.20;;;;;;;3.97;66.06;99083.54;1646033;85;21009;-61
2022/03/08 02:03:40;;;;;;;4.30;2.00;;;;;;;3.97;66.18;99085.33;1713470;82;21151;-62
2022/03/08 02:06:07;;;;;;;2.40;2.20;;;;;;;3.97;66.23;99084.02;1714419;82;21250;-61
2022/03/08 02:08:36;;;;;;;2.70;1.65;;;;;;;3.96;66.23;99084.53;1735368;82;21102;-60
2022/03/08 02:11:03;;;;;;;2.55;1.82;;;;;;;3.96;66.35;99090.27;1728198;82;20960;-61
2022/03/08 02:13:33;;;;;;;2.72;1.90;;;;;;;3.97;66.39;99084.02;1734894;82;20943;-63
2022/03/08 02:16:01;;;;;;;2.05;1.85;;;;;;;3.97;66.47;99084.02;1714831;82;20976;-62
2022/03/08 02:18:28;;;;;;;3.37;2.58;;;;;;;4.00;66.49;99086.37;1710739;82;21902;-60
2022/03/08 02:20:55;;;;;;;4.28;2.20;;;;;;;4.01;66.43;99088.05;1716631;82;21523;-60
2022/03/08 02:23:22;;;;;;;3.22;1.92;;;;;;;4.01;66.46;99085.42;1708169;83;20977;-62
2022/03/08 02:25:49;;;;;;;3.20;2.10;;;;;;;4.02;66.46;99085.75;1718883;82;21050;-62
2022/03/08 02:28:16;;;;;;;2.22;1.90;;;;;;;4.00;66.44;99091.17;1707428;83;20897;-63
2022/03/08 02:30:43;;;;;;;2.62;1.75;;;;;;;4.00;66.42;99089.84;1756235;80;21242;-60
2022/03/08 02:33:11;;;;;;;2.02;1.82;;;;;;;4.01;66.35;99095.95;1750503;80;20971;-59
2022/03/08 02:35:38;;;;;;;2.10;1.90;;;;;;;3.97;66.37;99094.55;1744884;80;21563;-61
2022/03/08 02:38:06;;;;;;;2.33;1.80;;;;;;;3.97;66.39;99093.23;1756533;80;20932;-60
2022/03/08 02:40:37;;;;;;;2.12;1.85;;;;;;;3.97;66.42;99090.59;1755814;80;21085;-61
2022/03/08 02:43:05;;;;;;;2.60;2.05;;;;;;;3.97;66.43;99091.91;1753061;80;21242;-61
2022/03/08 02:45:32;;;;;;;2.08;1.80;;;;;;;3.98;66.39;99096.22;1751846;80;20916;-61
2022/03/08 02:47:59;;;;;;;2.35;1.85;;;;;;;3.97;66.31;99099.33;1744146;82;20932;-61
2022/03/08 02:50:26;;;;;;;2.35;1.75;;;;;;;3.96;66.20;99096.85;1746443;80;21002;-61
2022/03/08 02:52:55;;;;;;;2.75;2.12;;;;;;;3.93;66.24;99102.39;1773584;80;21037;-60
2022/03/08 02:55:25;;;;;;;4.42;1.82;;;;;;;3.90;66.25;99097.39;1758600;80;21235;-61
2022/03/08 02:57:52;;;;;;;3.22;1.50;;;;;;;3.88;66.32;99095.39;1746974;80;20976;-61
2022/03/08 03:00:20;;;;;;;2.55;2.10;;;;;;;3.88;66.30;99095.39;1756596;80;21019;-63
2022/03/08 03:02:47;;;;;;;2.65;1.92;;;;;;;3.86;66.29;99098.14;1763639;80;20896;-61
2022/03/08 03:05:14;;;;;;;1.72;1.62;;;;;;;3.84;66.28;99096.61;1771310;80;20923;-60
2022/03/08 03:07:41;;;;;;;2.58;2.08;;;;;;;3.79;66.27;99095.72;1744798;80;21328;-61
2022/03/08 03:10:12;;;;;;;3.33;2.17;;;;;;;3.79;66.28;99098.34;1767361;80;20970;-61
2022/03/08 03:12:39;;;;;;;2.20;2.00;;;;;;;3.76;66.22;99095.98;1756059;80;21486;-62
2022/03/08 03:15:09;;;;;;;2.42;1.77;;;;;;;3.75;66.18;99092.52;1744323;80;20943;-61
2022/03/08 03:17:38;;;;;;;2.37;1.80;;;;;;;3.74;66.12;99104.50;1749525;80;20895;-59
2022/03/08 03:20:07;;;;;;;2.00;1.67;;;;;;;3.71;66.10;99102.14;1773766;80;22219;-61
2022/03/08 03:22:36;;;;;;;2.47;1.77;;;;;;;3.70;66.11;99102.63;1773068;80;21623;-61
2022/03/08 03:25:04;;;;;;;1.50;1.40;;;;;;;3.69;66.16;99103.61;1765413;80;21512;-61
2022/03/08 03:27:31;;;;;;;2.08;1.65;;;;;;;3.68;66.16;99109.83;1760197;80;20931;-59
2022/03/08 03:29:59;;;;;;;2.92;1.80;;;;;;;3.68;66.15;99108.98;1773154;80;20951;-61
2022/03/08 03:32:25;;;;;;;2.40;1.92;;;;;;;3.66;66.17;99104.35;1753273;81;21231;-60
2022/03/08 03:34:52;;;;;;;2.25;1.98;;;;;;;3.67;66.18;99109.50;1743328;80;20971;-62
2022/03/08 03:37:20;;;;;;;2.90;1.62;;;;;;;3.66;66.23;99109.14;1728878;81;21066;-60
2022/03/08 03:39:47;;;;;;;1.70;1.57;;;;;;;3.69;66.18;99111.50;1735771;81;20900;-61
2022/03/08 03:42:14;;;;;;;1.72;1.57;;;;;;;3.71;66.17;99116.13;1758560;81;20979;-61
2022/03/08 03:44:41;;;;;;;1.98;1.60;;;;;;;3.75;66.18;99115.39;1739452;82;21260;-61
2022/03/08 03:47:09;;;;;;;1.67;1.47;;;;;;;3.75;66.09;99118.02;1725436;81;20887;-61
2022/03/08 03:49:36;;;;;;;2.80;1.47;;;;;;;3.77;66.06;99116.55;1753921;81;21057;-62
2022/03/08 03:52:05;;;;;;;2.22;1.60;;;;;;;3.77;66.02;99119.19;1742801;81;20854;-62
2022/03/08 03:54:32;;;;;;;1.55;1.37;;;;;;;3.78;66.06;99120.35;1759699;80;20927;-60
2022/03/08 03:56:59;;;;;;;1.82;1.67;;;;;;;3.76;66.04;99126.24;1736677;80;21230;-62
2022/03/08 03:59:26;;;;;;;2.10;1.62;;;;;;;3.78;66.02;99119.55;1755250;81;20916;-62
2022/03/08 04:01:54;;;;;;;2.00;1.67;;;;;;;3.77;65.95;99126.61;1760965;81;20999;-60
2022/03/08 04:04:21;;;;;;;1.42;1.20;;;;;;;3.77;65.85;99130.55;1754364;81;20941;-61
2022/03/08 04:06:48;;;;;;;1.90;1.10;;;;;;;3.75;65.84;99125.41;1744272;80;20884;-61
2022/03/08 04:09:16;;;;;;;1.62;1.47;;;;;;;3.73;65.87;99127.34;1768260;80;21219;-64
2022/03/08 04:11:43;;;;;;;1.80;1.10;;;;;;;3.74;65.89;99129.50;1773579;80;20986;-61
2022/03/08 04:14:10;;;;;;;1.82;1.07;;;;;;;3.70;65.92;99129.44;1750236;80;20984;-61
2022/03/08 04:16:38;;;;;;;1.50;1.40;;;;;;;3.67;66.51;99129.23;1759013;80;21021;-60
2022/03/08 04:19:07;;;;;;;1.52;1.30;;;;;;;3.67;66.32;99133.65;1744251;82;20865;-62
2022/03/08 04:21:34;;;;;;;1.98;1.55;;;;;;;3.64;66.05;99130.80;1748432;80;21326;-61
2022/03/08 04:24:01;;;;;;;1.52;1.30;;;;;;;3.62;65.95;99135.34;1773586;80;20961;-60
2022/03/08 04:26:28;;;;;;;2.02;1.40;;;;;;;3.62;65.89;99132.72;1748448;80;20893;-60
2022/03/08 04:28:55;;;;;;;2.22;1.32;;;;;;;3.64;65.75;99128.17;1743831;80;20931;-61
2022/03/08 04:31:24;;;;;;;1.85;1.22;;;;;;;3.64;65.54;99132.13;1735420;80;20923;-62
2022/03/08 04:33:51;;;;;;;1.80;1.50;;;;;;;3.60;65.50;99132.02;1744616;82;21259;-61
2022/03/08 04:36:18;;;;;;;1.45;1.20;;;;;;;3.59;65.42;99133.48;1751633;80;20884;-61
2022/03/08 04:38:45;;;;;;;1.40;1.20;;;;;;;3.56;65.30;99132.44;1762846;80;20911;-62
2022/03/08 04:41:12;;;;;;;2.33;1.30;;;;;;;3.54;65.24;99133.90;1761415;81;20983;-62
2022/03/08 04:43:39;;;;;;;1.92;1.52;;;;;;;3.51;65.15;99139.42;1756143;81;20944;-62
2022/03/08 04:46:07;;;;;;;1.52;1.12;;;;;;;3.47;65.09;99138.02;1752040;81;21281;-62
2022/03/08 04:48:35;;;;;;;1.85;1.32;;;;;;;3.47;65.01;99145.06;1723368;81;21575;-61
2022/03/08 04:51:02;;;;;;;2.65;1.50;;;;;;;3.45;64.94;99138.63;1739226;82;20997;-61
2022/03/08 04:53:30;;;;;;;1.60;1.50;;;;;;;3.43;64.91;99146.31;1739324;82;21149;-62
2022/03/08 04:55:57;;;;;;;1.72;1.50;;;;;;;3.41;64.81;99142.98;1743879;81;21026;-60
2022/03/08 04:58:24;;;;;;;2.10;1.37;;;;;;;3.35;64.74;99145.66;1744132;80;21229;-61
2022/03/08 05:00:51;;;;;;;1.80;1.45;;;;;;;3.32;64.72;99150.34;1766127;80;20897;-61
2022/03/08 05:03:18;;;;;;;1.60;1.40;;;;;;;3.28;64.77;99151.11;1734439;81;20980;-61
2022/03/08 05:05:45;;;;;;;2.12;1.72;;;;;;;3.26;64.78;99152.20;1746392;80;21007;-61
2022/03/08 05:08:14;;;;;;;3.33;2.58;;;;;;;3.25;64.79;99150.53;1746754;80;20948;-61
2022/03/08 05:10:41;;;;;;;2.27;1.80;;;;;;;3.22;64.76;99152.94;1759861;80;21328;-60
2022/03/08 05:13:10;;;;;;;1.87;1.65;;;;;;;3.21;64.76;99158.34;1742812;81;21322;-62
2022/03/08 05:15:39;;;;;;;2.42;1.85;;;;;;;3.20;64.88;99160.14;1747110;81;20978;-61
2022/03/08 05:18:06;;;;;;;2.30;1.37;;;;;;;3.24;64.88;99168.57;1760943;80;20899;-61
2022/03/08 05:20:33;;;;;;;2.25;1.50;;;;;;;3.27;64.83;99162.58;1773697;80;21520;-61
2022/03/08 05:23:01;;;;;;;1.90;1.37;;;;;;;3.34;64.89;99166.81;1773443;80;21164;-61
2022/03/08 05:25:28;;;;;;;1.95;1.55;;;;;;;3.42;64.77;99168.30;1770337;80;21461;-62
2022/03/08 05:27:56;;;;;;;1.92;1.60;;;;;;;3.51;64.40;99166.20;1766351;80;20887;-62
2022/03/08 05:30:23;;;;;;;2.37;1.60;;;;;;;3.55;64.28;99169.73;1771822;80;21027;-61
2022/03/08 05:32:50;;;;;;;1.37;1.20;;;;;;;3.56;64.01;99174.05;1761381;81;21505;-59
2022/03/08 05:35:17;;;;;;;1.75;1.40;;;;;;;3.54;63.77;99165.94;1760279;81;21248;-60
2022/03/08 05:37:44;;;;;;;13.20;9.33;;;;;;;3.49;63.78;99174.23;1745894;81;20930;-61
2022/03/08 05:40:11;;;;;;;3.83;2.80;;;;;;;3.52;64.00;99171.83;1738161;81;21006;-63
2022/03/08 05:42:38;;;;;;;2.65;2.30;;;;;;;3.55;64.00;99175.48;1760148;81;20975;-61
2022/03/08 05:45:10;;;;;;;2.05;1.62;;;;;;;3.60;64.06;99171.48;1761043;81;20892;-62
2022/03/08 05:47:39;;;;;;;2.20;1.90;;;;;;;3.67;64.04;99173.11;1742137;81;21866;-61
2022/03/08 05:50:07;;;;;;;1.57;1.47;;;;;;;3.75;63.88;99176.72;1726153;81;20842;-60
2022/03/08 05:52:34;;;;;;;1.87;1.27;;;;;;;3.86;63.64;99181.55;1733634;81;21039;-60
2022/03/08 05:55:04;;;;;;;2.10;1.70;;;;;;;3.92;63.49;99177.03;1746760;81;21481;-62
2022/03/08 05:57:31;;;;;;;1.40;1.30;;;;;;;3.98;63.46;99175.19;1748407;81;20888;-62
2022/03/08 05:59:57;;;;;;;1.40;1.30;;;;;;;4.07;63.23;99171.23;1755380;81;21247;-62
2022/03/08 06:02:24;;;;;;;1.80;1.50;;;;;;;4.13;62.81;99172.50;1740142;81;20880;-63
2022/03/08 06:04:52;;;;;;;1.85;1.40;;;;;;;4.19;62.51;99179.86;1760978;81;20975;-62
2022/03/08 06:07:21;;;;;;;2.47;1.40;;;;;;;4.23;62.22;99182.07;1743216;81;21039;-62
2022/03/08 06:09:48;;;;;;;2.25;1.30;;;;;;;4.34;62.13;99189.01;1726305;81;21456;-63
2022/03/08 06:12:15;;;;;;;1.65;1.55;;;;;;;4.49;61.93;99194.69;1750585;81;21175;-62
2022/03/08 06:14:43;;;;;;;2.70;1.75;;;;;;;4.78;61.87;99188.92;1732966;81;20972;-64
2022/03/08 06:17:11;;;;;;;2.95;1.35;;;;;;;5.12;60.96;99189.27;1746050;81;20908;-64
2022/03/08 06:19:40;;;;;;;1.82;1.02;;;;;;;5.45;60.55;99184.78;1745883;81;21137;-62
2022/03/08 06:22:07;;;;;;;3.37;1.22;;;;;;;5.94;59.68;99188.91;1749418;81;20919;-61
2022/03/08 06:24:34;;;;;;;2.40;1.70;;;;;;;6.41;58.45;99181.62;1733589;81;22052;-61
2022/03/08 06:27:02;;;;;;;2.25;1.52;;;;;;;6.90;57.37;99179.73;1721925;81;21494;-61
2022/03/08 06:29:29;;;;;;;2.47;1.92;;;;;;;7.47;55.96;99186.20;1748354;81;21090;-60
2022/03/08 06:31:56;;;;;;;2.50;1.98;;;;;;;7.95;54.66;99182.94;1764144;81;20916;-62
2022/03/08 06:34:23;;;;;;;1.90;1.60;;;;;;;8.49;53.32;99185.08;1766228;80;20983;-62
2022/03/08 06:36:50;;;;;;;2.17;1.47;;;;;;;9.03;51.55;99182.75;1754551;81;21251;-62
2022/03/08 06:39:17;;;;;;;1.95;1.42;;;;;;;9.46;50.00;99181.02;1720722;81;21023;-63
2022/03/08 06:41:44;;;;;;;2.08;1.52;;;;;;;9.87;48.89;99181.70;1740778;81;20982;-60
2022/03/08 06:44:11;;;;;;;1.82;1.52;;;;;;;10.43;47.96;99177.41;1753234;81;21541;-61
2022/03/08 06:46:41;;;;;;;2.10;1.60;;;;;;;11.12;46.34;99176.87;1733359;81;21086;-63
2022/03/08 06:49:08;;;;;;;1.30;1.20;;;;;;;11.53;44.30;99173.27;1752907;81;21276;-62
2022/03/08 06:51:37;;;;;;;1.25;1.15;;;;;;;11.64;43.00;99175.48;1748864;81;20845;-61
2022/03/08 06:54:05;;;;;;;1.12;1.02;;;;;;;11.52;42.06;99185.75;1742445;81;21532;-64
2022/03/08 06:56:36;;;;;;;1.70;1.20;;;;;;;11.27;41.82;99180.88;1754910;81;21003;-62
2022/03/08 06:59:03;;;;;;;1.75;1.20;;;;;;;10.87;41.66;99186.09;1749305;81;21523;-64
2022/03/08 07:01:30;;;;;;;1.90;1.30;;;;;;;10.36;41.92;99195.09;1745038;81;21854;-61
2022/03/08 07:03:57;;;;;;;1.52;1.32;;;;;;;9.86;42.42;99199.46;1729467;81;20969;-62
2022/03/08 07:06:25;;;;;;;1.60;1.47;;;;;;;9.47;43.07;99201.74;1642159;85;20969;-62
2022/03/08 07:08:53;;;;;;;1.70;1.20;;;;;;;9.01;43.39;99196.20;1677687;84;20976;-60
2022/03/08 07:11:20;;;;;;;1.30;1.20;;;;;;;8.53;43.94;99207.60;1694890;84;20959;-62
2022/03/08 07:13:48;;;;;;;2.35;2.12;;;;;;;8.20;44.66;99202.38;1680806;84;21260;-62
2022/03/08 07:16:18;;;;;;;1.62;1.32;;;;;;;7.94;45.09;99206.44;1700541;84;20877;-63
2022/03/08 07:18:45;;;;;;;1.30;1.10;;;;;;;7.63;45.39;99204.82;1681093;84;21076;-62
2022/03/08 07:21:14;;;;;;;1.72;1.20;;;;;;;7.27;45.69;99198.80;1701015;82;20963;-63
2022/03/08 07:23:41;;;;;;;1.10;1.00;;;;;;;6.92;45.72;99212.12;1713841;82;21073;-63
2022/03/08 07:26:09;;;;;;;1.75;1.20;;;;;;;6.66;46.18;99212.09;1711713;83;21222;-63
2022/03/08 07:28:37;;;;;;;2.12;1.40;;;;;;;6.48;46.54;99209.94;1753200;81;21438;-65
2022/03/08 07:31:06;;;;;;;2.12;1.92;;;;;;;6.36;46.66;99211.63;1736950;81;20943;-64
2022/03/08 07:33:36;;;;;;;1.65;1.40;;;;;;;6.23;46.78;99212.48;1742671;81;20976;-64
2022/03/08 07:36:06;;;;;;;1.37;1.17;;;;;;;6.13;46.93;99216.49;1764258;80;20891;-66
2022/03/08 07:38:34;;;;;;;1.55;1.10;;;;;;;6.01;46.88;99212.41;1748191;81;21250;-62
2022/03/08 07:41:04;;;;;;;2.83;2.22;;;;;;;5.93;47.07;99218.42;1724233;80;21552;-63
2022/03/08 07:43:32;;;;;;;3.40;2.47;;;;;;;5.89;47.33;99212.28;1753456;80;21570;-61
2022/03/08 07:46:02;;;;;;;2.98;2.20;;;;;;;5.89;47.65;99213.59;1743828;81;21043;-64
2022/03/08 07:48:31;;;;;;;2.75;2.17;;;;;;;5.89;47.71;99213.08;1763293;81;21540;-62
2022/03/08 07:50:59;;;;;;;3.77;3.12;;;;;;;5.81;47.43;99216.10;1763372;81;21133;-62
2022/03/08 07:53:28;;;;;;;3.45;3.00;;;;;;;5.72;47.58;99209.88;1752655;81;21243;-64
2022/03/08 07:55:57;;;;;;;3.37;2.52;;;;;;;5.70;47.64;99210.53;1756371;81;20856;-67
2022/03/08 07:58:25;;;;;;;3.15;2.30;;;;;;;5.58;47.70;99207.23;1736799;81;20926;-65
2022/03/08 08:00:54;;;;;;;3.30;2.30;;;;;;;5.55;47.81;99202.23;1736944;80;21008;-64
2022/03/08 08:03:22;;;;;;;2.22;2.02;;;;;;;5.53;47.77;99202.04;1741543;81;21249;-62
2022/03/08 08:05:51;;;;;;;2.15;1.65;;;;;;;5.52;47.70;99200.39;1763967;81;21504;-63
2022/03/08 08:08:19;;;;;;;2.15;1.70;;;;;;;5.50;47.67;99197.88;1752615;80;20951;-64
2022/03/08 08:10:47;;;;;;;1.70;1.50;;;;;;;5.50;47.67;99200.52;1748218;80;20977;-65
2022/03/08 08:13:16;;;;;;;1.40;1.30;;;;;;;5.49;47.65;99190.12;1756808;80;20908;-62
2022/03/08 08:15:44;;;;;;;1.50;1.40;;;;;;;5.45;47.75;99190.05;1744382;80;22344;-64
2022/03/08 08:18:13;;;;;;;1.45;1.35;;;;;;;5.38;47.83;99188.98;1716514;82;21505;-64
2022/03/08 08:20:41;;;;;;;1.20;1.10;;;;;;;5.33;47.92;99192.54;1757549;80;20986;-64
2022/03/08 08:23:10;;;;;;;1.15;1.05;;;;;;;5.26;47.72;99187.50;1762627;81;20956;-65
2022/03/08 08:25:38;;;;;;;1.65;1.00;;;;;;;5.19;47.86;99191.70;1742345;81;20929;-61
2022/03/08 08:28:07;;;;;;;1.47;1.17;;;;;;;5.19;48.10;99190.38;1753509;81;21859;-62
2022/03/08 08:30:35;;;;;;;2.60;1.60;;;;;;;5.22;48.22;99192.70;1681535;83;21552;-61
2022/03/08 08:33:04;;;;;;;1.90;1.65;;;;;;;5.21;48.32;99185.31;1703495;83;20939;-63
2022/03/08 08:35:34;;;;;;;2.75;2.55;;;;;;;5.23;48.15;99187.30;1771502;80;20999;-62
2022/03/08 08:38:05;;;;;;;2.85;2.65;;;;;;;5.28;47.85;99186.87;1750062;80;20940;-63
2022/03/08 08:40:35;;;;;;;2.17;1.57;;;;;;;5.32;47.62;99175.07;1748972;80;21318;-62
2022/03/08 08:43:12;;;;;;;2.02;1.60;;;;;;;5.33;46.92;99179.35;1767228;80;21513;-61
2022/03/08 08:45:35;;;;;;;1.50;1.40;;;;;;;5.34;46.59;99182.34;1755092;80;20931;-62
2022/03/08 08:48:06;;;;;;;1.42;1.15;;;;;;;5.32;46.50;99190.38;1754175;80;20974;-62
2022/03/08 08:50:38;;;;;;;1.67;1.40;;;;;;;5.33;46.83;99192.06;1770424;80;21587;-63
2022/03/08 08:53:07;;;;;;;2.10;1.40;;;;;;;5.39;47.12;99194.61;1754703;80;21141;-63
2022/03/08 08:55:36;;;;;;;1.22;1.12;;;;;;;5.42;47.08;99187.73;1757728;80;21729;-64
2022/03/08 08:58:06;;;;;;;2.77;2.58;;;;;;;5.44;46.87;99195.01;1758361;80;20939;-63
2022/03/08 09:00:34;;;;;;;2.95;1.60;;;;;;;5.45;46.83;99191.38;1756362;80;20927;-63
2022/03/08 09:03:06;;;;;;;1.65;1.50;;;;;;;5.44;46.86;99191.05;1766357;80;21564;-63
2022/03/08 09:05:35;;;;;;;1.45;1.35;;;;;;;5.45;46.82;99190.89;1764263;80;20979;-63
2022/03/08 09:08:02;;;;;;;1.70;1.35;;;;;;;5.46;46.70;99194.37;1762417;80;20963;-66
2022/03/08 09:10:29;;;;;;;1.45;1.07;;;;;;;5.52;46.53;99195.12;1766568;80;21021;-63
2022/03/08 09:12:57;;;;;;;1.52;1.42;;;;;;;5.54;47.44;99199.75;1757407;80;20947;-62
2022/03/08 09:15:25;;;;;;;1.42;1.30;;;;;;;5.52;47.09;99195.12;1757294;80;21105;-63
2022/03/08 09:17:53;;;;;;;1.67;1.57;;;;;;;5.54;46.38;99199.75;1760908;80;21225;-62
2022/03/08 09:20:22;;;;;;;1.67;1.52;;;;;;;5.54;46.15;99193.16;1759557;80;21049;-62
2022/03/08 09:22:49;;;;;;;1.37;1.27;;;;;;;5.54;46.07;99193.16;1765733;80;21006;-62
2022/03/08 09:25:18;;;;;;;2.60;1.95;;;;;;;5.51;46.04;99194.77;1755591;80;21042;-63
2022/03/08 09:27:46;;;;;;;1.85;1.57;;;;;;;5.48;46.04;99187.97;1749622;80;20919;-64
2022/03/08 09:30:14;;;;;;;1.85;1.75;;;;;;;5.59;46.15;99186.95;1772442;80;21129;-63
2022/03/08 09:32:41;;;;;;;4.28;1.67;;;;;;;5.63;46.22;99193.63;1764979;80;21000;-63
2022/03/08 09:35:09;;;;;;;1.40;1.30;;;;;;;5.63;46.09;99186.51;1771234;80;20896;-62
2022/03/08 09:37:38;;;;;;;2.20;1.50;;;;;;;5.63;46.11;99187.83;1760388;80;20927;-63
2022/03/08 09:40:07;;;;;;;2.20;1.70;;;;;;;5.60;46.25;99184.16;1761667;80;20990;-63
2022/03/08 09:42:34;;;;;;;1.60;1.45;;;;;;;5.65;46.27;99182.42;1754145;80;21255;-63
2022/03/08 09:45:01;;;;;;;2.33;1.62;;;;;;;5.75;46.32;99186.33;1748279;80;20968;-62
2022/03/08 09:47:29;;;;;;;2.05;1.67;;;;;;;5.94;46.58;99182.30;1771796;80;20911;-62
2022/03/08 09:49:56;;;;;;;1.95;1.40;;;;;;;6.31;46.42;99175.59;1742608;80;20951;-64
2022/03/08 09:52:24;;;;;;;2.58;1.70;;;;;;;6.50;45.85;99172.77;1748223;80;20994;-63
2022/03/08 09:54:51;;;;;;;1.62;1.52;;;;;;;6.77;45.36;99168.23;1747679;80;21274;-62
2022/03/08 09:57:22;;;;;;;1.45;1.35;;;;;;;6.91;45.03;99161.53;1756362;80;21386;-64
2022/03/08 09:59:47;;;;;;;1.57;1.30;;;;;;;7.58;44.52;99159.95;1743947;80;20988;-64
2022/03/08 10:02:14;;;;;;;1.72;1.37;;;;;;;8.23;43.51;99155.19;1754894;80;20964;-64
2022/03/08 10:04:43;;;;;;;1.32;1.22;;;;;;;8.23;43.50;99155.19;1761284;80;20956;-63
2022/03/08 10:07:12;;;;;;;1.40;1.25;;;;;;;8.36;41.90;99156.90;1760433;80;21256;-64
2022/03/08 10:09:58;;;;;;;1.52;1.12;;;;;;;8.35;41.48;99162.34;1757098;80;21013;-64
2022/03/08 10:12:27;;;;;;;1.65;1.47;;;;;;;8.33;41.49;99157.70;1749527;80;20879;-63
2022/03/08 10:14:55;;;;;;;1.92;1.50;;;;;;;8.25;41.55;99161.15;1753493;80;20872;-63
2022/03/08 10:17:35;;;;;;;1.42;1.20;;;;;;;8.14;41.34;99153.50;1746356;80;20905;-61
2022/03/08 10:20:07;;;;;;;1.47;1.37;;;;;;;7.97;41.39;99153.98;1732249;81;21017;-65
2022/03/08 10:22:40;;;;;;;1.95;1.75;;;;;;;7.86;41.56;99158.24;1740170;81;21015;-64
2022/03/08 10:25:24;;;;;;;2.08;1.85;;;;;;;7.74;41.74;99158.20;1739903;81;21012;-62
2022/03/08 10:27:59;;;;;;;2.83;2.37;;;;;;;7.61;42.02;99156.50;1739851;80;20986;-64
2022/03/08 10:30:45;;;;;;;2.67;2.10;;;;;;;7.50;42.13;99159.42;1761180;80;21493;-64
2022/03/08 10:33:19;;;;;;;1.90;1.80;;;;;;;7.18;100.00;99160.08;1766167;80;21226;-63
2022/03/08 10:35:42;;;;;;;2.27;1.80;;;;;;;7.05;100.00;99170.24;1735598;80;21491;-63
2022/03/08 10:38:13;;;;;;;1.82;1.60;;;;;;;6.86;100.00;99166.46;1752585;80;21152;-64
2022/03/08 10:40:42;;;;;;;1.10;0.90;;;;;;;6.64;86.95;99169.13;1760050;80;21522;-64
2022/03/08 10:43:13;;;;;;;1.15;0.90;;;;;;;6.04;100.00;99178.63;1754662;80;21434;-61
2022/03/08 10:45:49;;;;;;;1.22;0.98;;;;;;;5.35;100.00;99188.78;1759599;80;21169;-62
2022/03/08 10:48:18;;;;;;;1.70;0.90;;;;;;;9.45;100.00;99178.03;1754705;80;21530;-64
2022/03/08 10:50:49;;;;;;;1.60;1.00;;;;;;;8.53;100.00;99176.28;1758518;80;20939;-64
2022/03/08 10:53:15;;;;;;;2.25;1.20;;;;;;;8.13;100.00;99150.53;1773409;80;20924;-66
2022/03/08 10:55:48;;;;;;;1.12;0.82;;;;;;;8.06;100.00;99154.31;1772693;80;21079;-63
2022/03/08 10:58:16;;;;;;;2.00;0.98;;;;;;;8.24;100.00;99163.45;1730946;80;21253;-62
2022/03/08 11:00:54;;;;;;;0.98;0.90;;;;;;;6.45;100.00;99167.95;1723913;82;21085;-63
2022/03/08 11:03:23;;;;;;;1.40;1.10;;;;;;;6.51;100.00;99162.55;1753115;80;20951;-62
2022/03/08 11:05:55;;;;;;;1.30;1.20;;;;;;;6.72;100.00;99160.42;1743239;80;21109;-62
2022/03/08 11:08:28;;;;;;;1.87;1.12;;;;;;;6.95;100.00;99160.74;1746795;80;20927;-65
2022/03/08 11:10:55;;;;;;;1.20;1.02;;;;;;;7.16;98.96;99161.22;1750402;80;21264;-67
2022/03/08 11:13:24;;;;;;;1.45;1.10;;;;;;;7.46;95.30;99159.39;1771807;80;20947;-66
2022/03/08 11:15:52;;;;;;;2.02;1.30;;;;;;;7.59;93.95;99151.00;1750944;80;20931;-64
2022/03/08 11:18:19;;;;;;;1.98;1.40;;;;;;;7.83;90.73;99145.31;1755444;80;20955;-65
2022/03/08 11:20:47;;;;;;;2.90;2.10;;;;;;;8.19;88.09;99137.11;1744218;80;21557;-65
2022/03/08 11:23:15;;;;;;;2.95;2.08;;;;;;;8.54;85.96;99129.73;1763248;80;21123;-63
2022/03/08 11:25:44;;;;;;;2.05;1.75;;;;;;;8.92;84.00;99132.67;1744198;80;21348;-64
2022/03/08 11:28:13;;;;;;;2.05;1.77;;;;;;;9.16;82.05;99127.33;1762654;80;21062;-65
2022/03/08 11:30:51;;;;;;;1.30;1.15;;;;;;;9.36;80.46;99145.84;1758934;80;21014;-64
2022/03/08 11:33:32;;;;;;;1.92;1.00;;;;;;;9.41;77.59;99138.20;1753810;80;20920;-66
2022/03/08 11:36:17;;;;;;;0.98;0.98;;;;;;;9.29;74.53;99137.75;1769613;80;21242;-65
2022/03/08 11:38:44;;;;;;;1.12;0.95;;;;;;;9.07;73.77;99136.32;1765189;80;20939;-64
2022/03/08 11:41:13;;;;;;;0.75;0.75;;;;;;;8.87;71.60;99138.98;1750374;80;21474;-66
2022/03/08 11:43:46;;;;;;;1.40;0.98;;;;;;;8.64;70.40;99137.02;1707022;80;21023;-65
2022/03/08 11:46:16;;;;;;;1.20;0.80;;;;;;;8.47;69.93;99137.19;1759437;80;20994;-63